Time;durP1;ratioP1;P1;durP2;ratioP2;P2;SDS_P1;SDS_P2;PMS_P1;PMS_P2;Temp;Humidity;BMP_temperature;BMP_pressure;BME280_temperature;BME280_humidity;BME280_pressure;Samples;Min_cycle;Max_cycle;Signal;HPM_P1;HPM_P2
2021/03/19 00:02:25;;;;;;;48.60;22.65;;;;;;;0.78;85.70;95253.44;5009752;28;20132;-66
2021/03/19 00:04:50;;;;;;;41.88;21.73;;;;;;;0.69;86.45;95260.09;5010247;28;20049;-64
2021/03/19 00:07:16;;;;;;;41.35;21.48;;;;;;;0.76;85.54;95247.63;5011999;28;20532;-66
2021/03/19 00:09:42;;;;;;;44.10;21.73;;;;;;;0.71;86.66;95255.41;5010073;28;20487;-66
2021/03/19 00:12:07;;;;;;;41.70;21.02;;;;;;;0.60;86.64;95251.06;5022193;28;20129;-66
2021/03/19 00:14:33;;;;;;;35.80;20.55;;;;;;;0.57;86.77;95262.03;5021053;28;20030;-67
2021/03/19 00:16:58;;;;;;;38.83;20.65;;;;;;;0.48;86.80;95240.69;5009772;28;20053;-65
2021/03/19 00:19:23;;;;;;;43.20;21.48;;;;;;;0.81;85.54;95252.16;5011710;28;20117;-65
2021/03/19 00:21:49;;;;;;;55.60;25.23;;;;;;;1.01;85.61;95248.00;5009513;28;20042;-66
2021/03/19 00:24:14;;;;;;;39.58;22.02;;;;;;;0.87;84.50;95249.41;5009962;28;20073;-66
2021/03/19 00:26:40;;;;;;;47.50;23.67;;;;;;;1.26;84.25;95242.31;5009928;28;20141;-66
2021/03/19 00:29:05;;;;;;;32.90;19.67;;;;;;;0.47;85.87;95250.34;5013148;28;20037;-66
2021/03/19 00:31:31;;;;;;;32.63;19.48;;;;;;;0.70;85.89;95230.28;5027907;28;20033;-66
2021/03/19 00:33:56;;;;;;;38.35;21.60;;;;;;;0.91;85.43;95244.47;5031289;28;20484;-65
2021/03/19 00:36:22;;;;;;;44.03;23.15;;;;;;;1.26;84.87;95237.06;5028062;28;20061;-66
2021/03/19 00:38:47;;;;;;;48.50;24.02;;;;;;;1.27;84.01;95228.19;5028849;28;20499;-65
2021/03/19 00:41:13;;;;;;;53.15;24.98;;;;;;;1.37;84.08;95237.22;5029160;28;20515;-65
2021/03/19 00:43:38;;;;;;;52.90;25.20;;;;;;;1.59;83.55;95235.41;5027856;28;20028;-66
2021/03/19 00:46:03;;;;;;;59.80;28.08;;;;;;;1.87;84.10;95237.00;5011413;28;20014;-66
2021/03/19 00:48:29;;;;;;;53.22;26.85;;;;;;;1.94;83.58;95228.94;5009093;28;20045;-66
2021/03/19 00:50:55;;;;;;;59.10;25.92;;;;;;;1.63;81.46;95223.34;5009020;28;20149;-67
2021/03/19 00:53:22;;;;;;;64.88;27.25;;;;;;;1.35;82.95;95215.72;5009042;28;20063;-66
2021/03/19 00:55:48;;;;;;;58.88;26.10;;;;;;;1.15;83.40;95224.88;5011887;28;20053;-66
2021/03/19 00:58:14;;;;;;;63.08;27.80;;;;;;;1.39;82.98;95209.72;5029354;28;20029;-66
2021/03/19 01:00:39;;;;;;;65.95;26.27;;;;;;;1.00;83.86;95220.22;5028881;28;20032;-66
2021/03/19 01:03:05;;;;;;;73.03;29.48;;;;;;;1.52;83.53;95227.69;5028774;28;20037;-66
2021/03/19 01:05:35;;;;;;;55.55;25.92;;;;;;;1.29;82.04;95220.09;5028899;28;20502;-65
2021/03/19 01:08:02;;;;;;;56.60;27.25;;;;;;;1.23;82.53;95215.84;5028499;28;20402;-66
2021/03/19 01:10:32;;;;;;;51.03;24.48;;;;;;;1.01;83.91;95219.19;5027518;28;20017;-64
2021/03/19 01:12:58;;;;;;;42.03;22.88;;;;;;;0.72;84.21;95220.38;5028782;28;20034;-65
2021/03/19 01:15:24;;;;;;;31.13;17.15;;;;;;;0.48;84.77;95217.13;5028795;28;20068;-65
2021/03/19 01:17:50;;;;;;;38.38;21.13;;;;;;;0.51;85.44;95217.44;5028609;28;20124;-65
2021/03/19 01:20:19;;;;;;;35.25;20.40;;;;;;;0.43;85.46;95212.59;5027114;28;20617;-66
2021/03/19 01:22:44;;;;;;;37.78;21.63;;;;;;;0.59;85.39;95210.22;5028637;28;20045;-65
2021/03/19 01:25:14;;;;;;;45.00;22.90;;;;;;;0.71;84.41;95203.06;5030551;28;20100;-66
2021/03/19 01:27:40;;;;;;;39.35;19.92;;;;;;;0.41;85.18;95204.22;5028506;28;20037;-65
2021/03/19 01:30:15;;;;;;;37.60;21.55;;;;;;;0.67;84.23;95202.75;5028538;28;20037;-66
2021/03/19 01:32:42;;;;;;;41.72;23.27;;;;;;;0.95;83.50;95186.13;5027205;28;20037;-65
2021/03/19 01:35:08;;;;;;;45.08;22.98;;;;;;;1.08;82.49;95192.84;5028520;28;20531;-65
2021/03/19 01:37:33;;;;;;;42.78;23.55;;;;;;;1.34;82.34;95191.31;5026964;28;20033;-65
2021/03/19 01:39:59;;;;;;;45.65;23.38;;;;;;;1.32;82.25;95187.34;5030445;28;20539;-65
2021/03/19 01:42:24;;;;;;;43.20;22.77;;;;;;;1.08;82.16;95178.97;5028103;28;20064;-66
2021/03/19 01:45:08;;;;;;;42.38;23.02;;;;;;;1.43;81.91;95189.84;5028291;28;20492;-65
2021/03/19 01:48:11;;;;;;;35.65;21.50;;;;;;;1.15;82.00;95187.41;5028301;28;20041;-68
2021/03/19 01:51:14;;;;;;;37.05;19.98;;;;;;;0.78;83.31;95193.22;5028079;28;20064;-67
2021/03/19 01:54:17;;;;;;;40.80;22.42;;;;;;;1.14;83.39;95185.84;5028080;28;20145;-67
2021/03/19 01:57:20;;;;;;;44.40;22.60;;;;;;;1.26;81.93;95176.03;5027833;28;20057;-67
2021/03/19 02:00:23;;;;;;;42.88;22.95;;;;;;;1.35;81.27;95176.41;5026994;28;20052;-68
2021/03/19 02:03:26;;;;;;;49.30;24.98;;;;;;;1.61;81.44;95178.25;5028150;28;20045;-67
2021/03/19 02:06:28;;;;;;;40.30;23.23;;;;;;;1.46;80.79;95178.88;5016966;28;20144;-67
2021/03/19 02:09:31;;;;;;;38.72;21.75;;;;;;;1.70;80.92;95168.13;5008234;28;20137;-67
2021/03/19 02:12:34;;;;;;;41.97;20.88;;;;;;;1.49;80.05;95172.38;5008283;28;20038;-68
2021/03/19 02:15:37;;;;;;;44.55;23.90;;;;;;;1.21;79.76;95168.09;5019754;28;20080;-67
2021/03/19 02:18:40;;;;;;;45.85;23.00;;;;;;;1.13;80.43;95163.31;5028017;28;20119;-68
2021/03/19 02:21:43;;;;;;;51.45;23.30;;;;;;;1.11;80.42;95165.34;5028072;28;20179;-68
2021/03/19 02:24:46;;;;;;;51.40;22.85;;;;;;;1.22;80.91;95170.47;5029472;28;20053;-68
2021/03/19 02:27:49;;;;;;;42.60;21.95;;;;;;;1.26;80.54;95178.63;5017841;28;20041;-68
2021/03/19 02:30:53;;;;;;;50.22;24.08;;;;;;;1.41;81.07;95173.56;5025337;28;20049;-68
2021/03/19 02:33:18;;;;;;;51.55;23.95;;;;;;;1.55;80.94;95166.94;5031645;28;20128;-68
2021/03/19 02:35:55;;;;;;;48.67;23.52;;;;;;;1.65;80.60;95160.22;5031843;28;20069;-67
2021/03/19 02:38:21;;;;;;;40.28;21.02;;;;;;;1.81;80.25;95164.56;5031428;28;20045;-67
2021/03/19 02:40:48;;;;;;;47.53;23.67;;;;;;;1.92;79.54;95170.69;5027769;28;20029;-68
2021/03/19 02:43:14;;;;;;;45.55;22.35;;;;;;;1.95;79.66;95162.34;5013339;28;20079;-67
2021/03/19 02:45:39;;;;;;;44.72;22.73;;;;;;;1.99;79.07;95163.41;5010310;28;20038;-69
2021/03/19 02:48:05;;;;;;;43.50;22.10;;;;;;;1.99;78.71;95152.91;5011497;28;20026;-68
2021/03/19 02:50:31;;;;;;;46.05;23.08;;;;;;;2.00;78.38;95165.78;5011463;28;20041;-68
2021/03/19 02:52:56;;;;;;;37.72;21.70;;;;;;;1.93;77.73;95170.44;5015299;28;20045;-67
2021/03/19 02:55:21;;;;;;;33.17;19.13;;;;;;;1.82;77.17;95166.13;5032027;28;20509;-68
2021/03/19 02:57:47;;;;;;;39.05;21.25;;;;;;;1.97;77.52;95174.16;5031075;28;20054;-68
2021/03/19 03:00:22;;;;;;;35.38;19.98;;;;;;;1.95;76.79;95168.38;5029746;28;20522;-67
2021/03/19 03:05:20;;;;;;;32.08;18.73;;;;;;;1.88;75.86;95164.34;5028579;28;20046;-70
2021/03/19 03:07:45;;;;;;;32.63;19.98;;;;;;;1.86;76.02;95169.84;5030499;28;20033;-71
2021/03/19 03:10:15;;;;;;;30.35;19.08;;;;;;;1.98;76.29;95164.44;5015232;28;20033;-69
2021/03/19 03:12:41;;;;;;;30.98;19.33;;;;;;;2.03;76.48;95165.28;5012718;28;20052;-69
2021/03/19 03:15:09;;;;;;;30.65;19.52;;;;;;;2.07;76.11;95155.09;5024625;28;20029;-72
2021/03/19 03:17:35;;;;;;;29.98;19.33;;;;;;;2.18;75.98;95171.69;5030686;28;20034;-69
2021/03/19 03:20:00;;;;;;;36.10;20.60;;;;;;;2.15;75.79;95172.19;5030630;28;20029;-69
2021/03/19 03:22:26;;;;;;;33.30;18.70;;;;;;;2.13;75.86;95176.91;5014857;28;20064;-71
2021/03/19 03:24:51;;;;;;;35.42;20.00;;;;;;;1.98;75.21;95157.38;5011535;28;20488;-69
2021/03/19 03:27:16;;;;;;;42.22;20.95;;;;;;;1.93;75.40;95161.78;5025404;28;20372;-70
2021/03/19 03:29:42;;;;;;;33.92;19.70;;;;;;;1.96;76.07;95163.91;5020696;28;20049;-70
2021/03/19 03:32:07;;;;;;;39.08;20.73;;;;;;;1.94;75.92;95156.28;5015946;28;20385;-70
2021/03/19 03:34:33;;;;;;;36.15;20.77;;;;;;;2.06;76.23;95167.41;5029677;28;20029;-70
2021/03/19 03:37:00;;;;;;;33.08;20.42;;;;;;;2.07;75.59;95150.63;5012439;28;20088;-70
2021/03/19 03:39:29;;;;;;;32.88;19.05;;;;;;;2.20;75.90;95157.31;5010570;28;20038;-70
2021/03/19 03:41:56;;;;;;;33.35;19.70;;;;;;;2.28;75.39;95148.16;5022172;28;20048;-70
2021/03/19 03:44:22;;;;;;;35.17;20.35;;;;;;;2.27;75.33;95142.13;5023133;28;20129;-70
2021/03/19 03:46:48;;;;;;;40.42;21.83;;;;;;;2.30;75.01;95135.56;5011528;28;20462;-71
2021/03/19 03:49:15;;;;;;;37.08;20.08;;;;;;;2.34;75.74;95134.03;5031951;28;20026;-71
2021/03/19 03:51:41;;;;;;;31.77;19.05;;;;;;;2.37;75.91;95125.66;5011316;28;20624;-70
2021/03/19 03:54:06;;;;;;;29.33;18.52;;;;;;;2.47;75.99;95141.47;5009257;28;20205;-70
2021/03/19 03:56:32;;;;;;;29.70;18.52;;;;;;;2.40;74.93;95146.13;5017606;28;20610;-70
2021/03/19 03:58:57;;;;;;;25.60;17.50;;;;;;;2.27;74.25;95141.34;5029872;28;20048;-70
2021/03/19 04:01:24;;;;;;;27.38;17.40;;;;;;;2.33;74.14;95151.63;5031601;28;20033;-71
2021/03/19 04:03:50;;;;;;;30.25;17.90;;;;;;;2.33;74.35;95150.81;5029968;28;20041;-70
2021/03/19 04:06:15;;;;;;;28.27;18.15;;;;;;;2.25;74.97;95131.09;5015265;28;20557;-71
2021/03/19 04:08:41;;;;;;;29.67;17.85;;;;;;;2.36;73.68;95152.97;5002051;28;20388;-71
2021/03/19 04:11:12;;;;;;;26.08;16.52;;;;;;;2.43;74.12;95153.53;5024320;28;20516;-70
2021/03/19 04:13:37;;;;;;;21.25;15.30;;;;;;;2.51;73.94;95153.06;5009845;28;20030;-70
2021/03/19 04:16:04;;;;;;;22.90;15.68;;;;;;;2.59;73.58;95149.94;5011966;28;20453;-70
2021/03/19 04:18:29;;;;;;;24.55;16.55;;;;;;;2.65;73.39;95148.16;5026049;28;20049;-70
2021/03/19 04:20:58;;;;;;;22.45;15.85;;;;;;;2.69;73.49;95148.44;5018013;28;20050;-70
2021/03/19 04:23:24;;;;;;;25.45;16.00;;;;;;;2.62;72.65;95140.78;5017066;28;20045;-70
2021/03/19 04:25:51;;;;;;;25.08;16.23;;;;;;;2.71;73.17;95148.97;5009324;28;20049;-70
2021/03/19 04:28:20;;;;;;;26.25;16.23;;;;;;;2.63;72.87;95134.50;5011689;28;20092;-70
2021/03/19 04:30:46;;;;;;;26.48;15.93;;;;;;;2.74;72.79;95157.13;5010136;28;20100;-71
2021/03/19 04:33:16;;;;;;;27.20;16.52;;;;;;;2.76;72.90;95152.41;5008174;28;20442;-70
2021/03/19 04:35:42;;;;;;;22.75;14.82;;;;;;;2.80;72.91;95157.97;5008273;28;20057;-70
2021/03/19 04:38:11;;;;;;;25.70;16.73;;;;;;;2.69;72.70;95137.94;4997069;28;20042;-70
2021/03/19 04:40:41;;;;;;;23.77;15.63;;;;;;;2.73;72.66;95145.06;5028259;28;20021;-70
2021/03/19 04:43:07;;;;;;;22.92;16.60;;;;;;;2.73;72.56;95136.38;5011828;28;20021;-71
2021/03/19 04:45:32;;;;;;;22.48;15.45;;;;;;;2.69;72.40;95135.31;5026738;28;20124;-70
2021/03/19 04:47:57;;;;;;;21.33;14.73;;;;;;;2.79;71.91;95151.13;5016523;28;20066;-70
2021/03/19 04:50:24;;;;;;;21.02;13.88;;;;;;;2.63;71.20;95154.72;5016789;28;20061;-70
2021/03/19 04:52:50;;;;;;;24.80;15.73;;;;;;;2.66;71.90;95162.06;5026448;28;20042;-70
2021/03/19 04:55:16;;;;;;;23.35;15.20;;;;;;;2.58;72.12;95164.13;5011925;28;20081;-70
2021/03/19 04:57:41;;;;;;;20.73;14.73;;;;;;;2.62;72.59;95153.13;5027274;28;20041;-70
2021/03/19 05:00:10;;;;;;;20.67;14.77;;;;;;;2.70;72.03;95163.16;5015658;28;20096;-70
2021/03/19 05:02:40;;;;;;;24.63;16.23;;;;;;;2.76;71.21;95170.00;5018444;28;20499;-70
2021/03/19 05:05:08;;;;;;;22.98;15.23;;;;;;;2.57;70.75;95156.50;5023735;28;20123;-70
2021/03/19 05:07:33;;;;;;;19.25;14.30;;;;;;;2.16;70.13;95150.19;5009762;28;20033;-71
2021/03/19 05:09:59;;;;;;;20.48;13.90;;;;;;;2.17;70.23;95167.50;5030756;28;20025;-70
2021/03/19 05:12:24;;;;;;;24.58;15.13;;;;;;;1.78;71.75;95136.97;5028787;28;20088;-70
2021/03/19 05:14:50;;;;;;;23.52;15.35;;;;;;;1.69;71.70;95166.53;5017811;28;20041;-71
2021/03/19 05:17:15;;;;;;;19.95;14.77;;;;;;;1.76;71.83;95156.66;5015400;28;20073;-70
2021/03/19 05:19:41;;;;;;;22.33;14.57;;;;;;;1.87;71.44;95171.44;5027186;28;20526;-70
2021/03/19 05:22:07;;;;;;;21.02;12.68;;;;;;;0.63;75.10;95175.47;5010857;28;20105;-70
2021/03/19 05:24:33;;;;;;;19.95;13.73;;;;;;;0.75;76.43;95176.16;5025826;28;20148;-70
2021/03/19 05:26:58;;;;;;;20.33;14.23;;;;;;;0.75;76.65;95172.75;5016513;28;20034;-71
2021/03/19 05:29:23;;;;;;;19.40;13.75;;;;;;;0.90;75.81;95154.63;5016217;28;20034;-70
2021/03/19 05:31:49;;;;;;;20.65;15.02;;;;;;;1.43;75.31;95181.19;5025713;28;20073;-70
2021/03/19 05:34:14;;;;;;;22.83;15.45;;;;;;;1.73;75.32;95167.63;5010832;28;20464;-70
2021/03/19 05:36:40;;;;;;;20.92;14.55;;;;;;;2.02;74.63;95178.66;5026988;28;20451;-70
2021/03/19 05:39:08;;;;;;;21.40;15.40;;;;;;;2.16;74.40;95177.22;5014655;28;20121;-70
2021/03/19 05:41:37;;;;;;;21.60;15.27;;;;;;;2.32;73.86;95178.13;5017547;28;20171;-71
2021/03/19 05:44:15;;;;;;;19.48;14.40;;;;;;;2.25;71.60;95182.78;5028570;28;20495;-70
2021/03/19 05:46:50;;;;;;;20.92;14.50;;;;;;;2.14;71.25;95181.09;5028247;28;20018;-70
2021/03/19 05:49:25;;;;;;;20.65;14.52;;;;;;;1.64;72.88;95188.25;5030145;28;20033;-70
2021/03/19 05:52:13;;;;;;;21.35;13.82;;;;;;;1.73;72.16;95188.59;5028032;28;20699;-70
2021/03/19 05:54:42;;;;;;;17.42;13.20;;;;;;;1.43;72.37;95184.59;5010030;28;20385;-70
2021/03/19 05:57:14;;;;;;;17.10;13.18;;;;;;;1.56;72.24;95197.34;5010238;28;20146;-70
2021/03/19 05:59:47;;;;;;;21.17;13.88;;;;;;;2.02;72.23;95189.16;5032225;28;20077;-69
2021/03/19 06:02:24;;;;;;;20.23;13.68;;;;;;;2.37;71.59;95195.75;5032047;28;20029;-70
2021/03/19 06:05:00;;;;;;;19.13;13.55;;;;;;;2.24;70.59;95195.09;5032153;28;20377;-70
2021/03/19 06:07:44;;;;;;;18.75;13.30;;;;;;;2.07;70.13;95202.31;5033699;28;20124;-73
2021/03/19 06:10:20;;;;;;;17.50;12.82;;;;;;;1.82;70.58;95208.09;5031847;28;20049;-71
2021/03/19 06:12:49;;;;;;;18.02;13.00;;;;;;;1.71;70.96;95183.59;5014423;28;20065;-73
2021/03/19 06:15:33;;;;;;;17.67;12.70;;;;;;;1.67;71.71;95202.69;5028119;28;20392;-72
2021/03/19 06:18:01;;;;;;;17.48;13.45;;;;;;;1.31;72.25;95202.28;5020370;28;20068;-77
2021/03/19 06:20:28;;;;;;;18.02;12.88;;;;;;;1.44;72.05;95191.44;4995596;28;20042;-76
2021/03/19 06:22:53;;;;;;;18.80;13.73;;;;;;;1.90;72.08;95207.66;5013411;28;20042;-78
2021/03/19 06:25:26;;;;;;;18.00;12.95;;;;;;;2.28;71.12;95208.53;5015499;28;20435;-77
2021/03/19 06:27:59;;;;;;;14.10;11.93;;;;;;;2.27;69.04;95199.06;5030471;28;20042;-80
2021/03/19 06:30:26;;;;;;;;;;;;;;;2.37;68.19;95208.88;5016487;28;20042;-72
2021/03/19 06:33:10;;;;;;;15.75;12.27;;;;;;;2.50;68.70;95206.59;5013428;28;20425;-74
2021/03/19 06:35:37;;;;;;;16.65;13.40;;;;;;;2.52;68.22;95204.53;5004687;28;20125;-71
2021/03/19 06:38:21;;;;;;;16.40;13.25;;;;;;;2.96;68.32;95212.16;5011431;28;20048;-69
2021/03/19 06:40:47;;;;;;;15.57;12.07;;;;;;;3.18;68.39;95216.50;5020831;28;20029;-74
2021/03/19 06:43:22;;;;;;;17.10;12.82;;;;;;;3.32;68.12;95215.78;5034610;28;20044;-74
2021/03/19 06:46:07;;;;;;;17.35;12.63;;;;;;;3.41;67.99;95210.81;5033848;28;20088;-78
2021/03/19 06:48:39;;;;;;;18.17;13.38;;;;;;;3.49;67.74;95210.34;5032761;28;20069;-79
2021/03/19 06:51:33;;;;;;;18.33;13.23;;;;;;;3.60;67.30;95213.81;5032500;28;20495;-82
2021/03/19 06:54:00;;;;;;;17.77;13.40;;;;;;;3.23;66.43;95201.56;5032608;28;20037;-79
2021/03/19 06:56:25;;;;;;;18.30;13.13;;;;;;;3.39;66.61;95210.31;5033456;28;20043;-80
2021/03/19 06:58:52;;;;;;;16.27;13.68;;;;;;;3.34;67.21;95187.41;5015141;28;20037;-78
2021/03/19 07:01:23;;;;;;;16.10;12.05;;;;;;;3.24;65.76;95179.47;5034656;28;20030;-77
2021/03/19 07:03:54;;;;;;;18.25;13.45;;;;;;;3.84;66.49;95216.78;5012701;28;20041;-69
2021/03/19 07:06:54;;;;;;;14.93;11.57;;;;;;;3.94;65.56;95201.00;5028292;28;20394;-72
2021/03/19 07:09:37;;;;;;;17.98;12.50;;;;;;;3.84;64.32;95125.47;5031581;28;20296;-75
2021/03/19 07:12:36;;;;;;;14.98;12.35;;;;;;;4.56;63.79;95212.41;5014588;28;20030;-74
2021/03/19 07:15:41;;;;;;;16.20;12.38;;;;;;;3.67;63.41;95210.91;5032634;28;20037;-73
2021/03/19 07:18:25;;;;;;;15.70;11.88;;;;;;;4.26;64.68;95215.81;5013645;28;20569;-70
2021/03/19 07:21:26;;;;;;;16.35;12.40;;;;;;;3.83;63.44;95220.44;5030611;28;20033;-74
2021/03/19 07:24:08;;;;;;;16.08;11.48;;;;;;;3.90;64.59;95215.75;5031971;28;20041;-70
2021/03/19 07:26:37;;;;;;;13.80;12.18;;;;;;;4.53;63.30;95218.97;5031839;28;20041;-75
2021/03/19 07:29:54;;;;;;;14.65;12.10;;;;;;;3.97;63.41;95221.53;5031515;28;20068;-75
2021/03/19 07:32:22;;;;;;;13.02;11.35;;;;;;;2.76;66.04;95223.31;4973358;28;20036;-75
2021/03/19 07:35:10;;;;;;;13.35;11.23;;;;;;;3.59;66.34;95223.53;5032076;28;20049;-83
2021/03/19 07:38:03;;;;;;;12.23;10.93;;;;;;;3.22;64.07;95183.38;5032185;28;20033;-71
2021/03/19 07:40:55;;;;;;;13.45;11.43;;;;;;;4.61;63.39;95226.34;5033877;28;20017;-76
2021/03/19 07:43:21;;;;;;;12.85;11.35;;;;;;;5.06;62.11;95222.06;5032092;28;20044;-75
2021/03/19 07:45:49;;;;;;;13.93;11.88;;;;;;;5.06;59.74;95227.34;5032172;28;20034;-75
2021/03/19 07:48:20;;;;;;;13.77;12.35;;;;;;;5.69;59.42;95217.16;5031714;28;20117;-75
2021/03/19 07:51:21;;;;;;;13.02;10.93;;;;;;;4.74;60.36;95222.38;5031436;28;20068;-75
2021/03/19 07:53:56;;;;;;;17.23;11.40;;;;;;;5.80;59.85;95219.75;5031648;28;20061;-75
2021/03/19 07:57:00;;;;;;;14.57;12.73;;;;;;;5.54;57.82;95219.84;5013644;28;20037;-74
2021/03/19 07:59:58;;;;;;;13.48;11.52;;;;;;;5.45;57.54;95230.16;5031015;28;20078;-71
2021/03/19 08:02:46;;;;;;;12.35;11.07;;;;;;;4.57;58.48;95237.69;5020195;28;20048;-72
2021/03/19 08:05:26;;;;;;;15.07;12.30;;;;;;;4.88;60.08;95239.25;5031034;28;20029;-73
2021/03/19 08:08:12;;;;;;;13.65;11.98;;;;;;;5.08;59.07;95229.75;5013238;28;20037;-70
2021/03/19 08:10:55;;;;;;;14.07;12.68;;;;;;;5.21;58.29;95234.44;5030943;28;20091;-70
2021/03/19 08:13:49;;;;;;;14.88;11.75;;;;;;;3.59;63.14;95238.53;5032774;28;20532;-68
2021/03/19 08:16:23;;;;;;;13.13;11.73;;;;;;;4.08;61.70;95238.94;5031238;28;20048;-69
2021/03/19 08:19:02;;;;;;;17.67;12.23;;;;;;;2.72;66.31;95239.88;5030525;28;20052;-69
2021/03/19 08:21:35;;;;;;;13.93;12.45;;;;;;;3.30;64.43;95230.22;5013119;28;20124;-69
2021/03/19 08:24:22;;;;;;;16.55;12.07;;;;;;;4.13;63.66;95246.84;5023392;28;20034;-69
2021/03/19 08:27:07;;;;;;;14.48;12.98;;;;;;;2.91;65.15;95253.38;5030484;28;20038;-69
2021/03/19 08:29:42;;;;;;;16.13;13.82;;;;;;;3.16;65.83;95250.91;5004357;28;20395;-69
2021/03/19 08:32:45;;;;;;;16.77;13.90;;;;;;;2.49;68.29;95228.66;5015925;28;20037;-70
2021/03/19 08:35:26;;;;;;;17.83;14.18;;;;;;;3.45;67.10;95264.50;5030549;28;20048;-69
2021/03/19 08:38:08;;;;;;;19.10;14.52;;;;;;;4.18;65.62;95256.59;5030277;28;20083;-70
2021/03/19 08:40:54;;;;;;;14.85;13.20;;;;;;;3.01;67.96;95261.34;5030472;28;20033;-69
2021/03/19 08:43:31;;;;;;;16.58;13.55;;;;;;;3.00;68.87;95257.13;5032224;28;20404;-69
2021/03/19 08:46:14;;;;;;;16.08;12.48;;;;;;;2.97;69.79;95258.44;5012925;28;20045;-70
2021/03/19 08:48:54;;;;;;;15.15;13.40;;;;;;;3.82;67.93;95271.50;5008912;28;20044;-68
2021/03/19 08:51:22;;;;;;;17.23;14.02;;;;;;;3.84;66.59;95262.31;5025034;28;20107;-70
2021/03/19 08:54:15;;;;;;;15.82;12.27;;;;;;;3.51;68.35;95271.34;5030050;28;20403;-70
2021/03/19 08:56:45;;;;;;;14.65;13.13;;;;;;;4.49;66.73;95265.31;5030195;28;20058;-71
2021/03/19 08:59:29;;;;;;;19.52;13.40;;;;;;;3.77;65.78;95274.88;5012629;28;20041;-70
2021/03/19 09:02:03;;;;;;;18.60;13.50;;;;;;;3.79;65.90;95279.91;5029830;28;20037;-70
2021/03/19 09:04:53;;;;;;;14.45;12.82;;;;;;;2.92;67.90;95271.53;5011928;28;20039;-66
2021/03/19 09:07:33;;;;;;;16.17;11.80;;;;;;;2.72;70.17;95266.94;5031856;28;20029;-69
2021/03/19 09:10:04;;;;;;;15.20;11.35;;;;;;;3.59;69.46;95276.13;5030239;28;20104;-69
2021/03/19 09:12:51;;;;;;;12.32;9.68;;;;;;;2.51;70.76;95271.22;5029815;28;20037;-71
2021/03/19 09:15:17;;;;;;;11.50;10.30;;;;;;;2.14;73.70;95279.00;5029871;28;20037;-69
2021/03/19 09:17:48;;;;;;;12.23;10.65;;;;;;;2.30;72.98;95278.13;5011589;28;20033;-71
2021/03/19 09:20:27;;;;;;;15.13;10.88;;;;;;;2.32;73.71;95280.50;5029351;28;20048;-71
2021/03/19 09:23:07;;;;;;;20.65;11.70;;;;;;;2.45;73.40;95289.78;5029635;28;20121;-69
2021/03/19 09:25:47;;;;;;;21.45;12.93;;;;;;;2.12;74.50;95291.56;5029745;28;20159;-68
2021/03/19 09:28:18;;;;;;;18.35;12.38;;;;;;;1.02;79.35;95291.53;5031392;28;20049;-69
2021/03/19 09:30:57;;;;;;;22.98;14.80;;;;;;;1.21;80.58;95293.88;5029897;28;20095;-72
2021/03/19 09:33:44;;;;;;;29.45;17.83;;;;;;;1.66;78.26;95296.31;5032846;28;20440;-70
2021/03/19 09:36:47;;;;;;;27.10;16.60;;;;;;;1.25;80.14;95290.53;5036148;28;20038;-69
2021/03/19 09:39:31;;;;;;;;;;;;;;;1.37;79.61;95293.03;5036495;28;20041;-70
2021/03/19 09:41:56;;;;;;;59.60;23.35;;;;;;;2.07;79.81;95279.19;5035746;28;19917;-69
2021/03/19 09:44:30;;;;;;;66.70;26.25;;;;;;;2.55;78.27;95290.66;5036002;28;20036;-70
2021/03/19 09:47:00;;;;;;;72.75;29.45;;;;;;;3.28;76.11;95285.72;5035923;28;20037;-69
2021/03/19 09:49:27;;;;;;;54.72;25.38;;;;;;;3.06;74.10;95287.66;5037969;28;20042;-69
2021/03/19 09:51:52;;;;;;;68.95;29.35;;;;;;;3.75;76.51;95287.53;5035838;28;20104;-69
2021/03/19 09:54:17;;;;;;;64.28;27.10;;;;;;;4.29;74.65;95289.78;5036147;28;20124;-69
2021/03/19 09:56:43;;;;;;;69.88;31.75;;;;;;;5.44;75.83;95280.56;5035744;28;20038;-70
2021/03/19 09:59:20;;;;;;;52.17;27.25;;;;;;;6.02;69.37;95291.47;5035971;28;20049;-69
2021/03/19 10:01:45;;;;;;;50.72;25.35;;;;;;;5.80;68.26;95280.47;5036283;28;20111;-69
2021/03/19 10:04:26;;;;;;;46.55;25.45;;;;;;;6.51;68.87;95288.84;5037932;28;20067;-70
2021/03/19 10:06:52;;;;;;;38.03;22.70;;;;;;;4.67;64.41;95280.63;5035885;28;20037;-67
2021/03/19 10:09:21;;;;;;;39.45;22.02;;;;;;;2.91;72.57;95296.22;5035886;28;20042;-70
2021/03/19 10:11:51;;;;;;;33.47;19.98;;;;;;;2.17;76.06;95299.50;5017917;28;20154;-71
2021/03/19 10:14:37;;;;;;;34.08;20.17;;;;;;;1.82;77.88;95292.81;5036016;28;20104;-71
2021/03/19 10:17:26;;;;;;;33.58;21.00;;;;;;;2.22;75.51;95302.19;5035757;28;20042;-69
2021/03/19 10:20:02;;;;;;;38.63;23.50;;;;;;;3.13;75.55;95280.34;5035323;28;20091;-69
2021/03/19 10:22:46;;;;;;;28.80;21.20;;;;;;;4.32;70.93;95291.13;5037792;28;20080;-70
2021/03/19 10:25:31;;;;;;;25.88;18.48;;;;;;;3.69;68.81;95282.50;5036390;28;20033;-69
2021/03/19 10:28:24;;;;;;;20.35;17.75;;;;;;;3.72;70.78;95287.22;5036046;28;20095;-69
2021/03/19 10:30:53;;;;;;;23.33;17.77;;;;;;;4.41;72.16;95274.53;5008204;28;20048;-70
2021/03/19 10:33:41;;;;;;;19.73;16.52;;;;;;;2.81;72.03;95290.88;5029580;28;20117;-69
2021/03/19 10:36:11;;;;;;;19.98;17.58;;;;;;;4.11;73.86;95285.81;5018029;28;20120;-69
2021/03/19 10:38:37;;;;;;;16.95;14.68;;;;;;;3.01;71.14;95288.41;5035251;28;20042;-69
2021/03/19 10:41:35;;;;;;;20.48;16.33;;;;;;;4.56;71.34;95289.59;5035689;28;20122;-70
2021/03/19 10:44:19;;;;;;;18.10;15.35;;;;;;;5.35;64.75;95280.31;5016985;28;20494;-70
2021/03/19 10:47:16;;;;;;;12.88;11.35;;;;;;;3.38;68.99;95279.72;5032223;28;20033;-71
2021/03/19 10:49:59;;;;;;;14.07;12.55;;;;;;;2.82;70.17;95293.28;5032175;28;20036;-70
2021/03/19 10:52:34;;;;;;;18.77;15.27;;;;;;;3.60;71.87;95290.88;5034321;28;20113;-71
2021/03/19 10:55:04;;;;;;;14.98;12.95;;;;;;;3.62;67.29;95295.88;5033088;28;20038;-72
2021/03/19 10:57:35;;;;;;;18.15;14.88;;;;;;;4.29;67.31;95291.63;5032184;28;20049;-71
2021/03/19 11:00:37;;;;;;;13.43;11.95;;;;;;;3.27;66.10;95259.66;5032576;28;20033;-72
2021/03/19 11:03:05;;;;;;;13.00;11.73;;;;;;;3.02;65.76;95299.69;5001472;28;20029;-73
2021/03/19 11:05:33;;;;;;;13.63;12.23;;;;;;;3.86;65.39;95283.09;5012711;28;20125;-73
2021/03/19 11:08:16;;;;;;;15.80;14.07;;;;;;;5.48;64.59;95292.19;5016277;28;20526;-71
2021/03/19 11:10:41;;;;;;;16.52;14.90;;;;;;;4.25;66.22;95291.38;5032219;28;20475;-72
2021/03/19 11:13:07;;;;;;;17.25;13.80;;;;;;;4.76;63.97;95296.72;5034077;28;20052;-71
2021/03/19 11:15:32;;;;;;;14.02;12.57;;;;;;;4.52;64.19;95285.09;5032113;28;20034;-71
2021/03/19 11:18:13;;;;;;;14.02;12.63;;;;;;;3.74;65.66;95285.16;5031797;28;20045;-71
2021/03/19 11:20:38;;;;;;;14.15;12.75;;;;;;;4.04;64.58;95285.22;5031686;28;20343;-71
2021/03/19 11:23:17;;;;;;;15.55;14.05;;;;;;;4.15;63.52;95289.50;5031731;28;20037;-71
2021/03/19 11:25:48;;;;;;;14.38;12.85;;;;;;;4.94;62.73;95285.63;5032236;28;20026;-71
2021/03/19 11:28:19;;;;;;;14.07;12.57;;;;;;;4.29;61.03;95289.00;5033798;28;20026;-71
2021/03/19 11:30:45;;;;;;;14.97;13.40;;;;;;;4.29;62.99;95281.09;5032050;28;20052;-71
2021/03/19 11:33:17;;;;;;;17.13;15.27;;;;;;;3.89;64.22;95256.28;5031751;28;20268;-70
2021/03/19 11:35:43;;;;;;;17.05;15.35;;;;;;;4.06;65.85;95280.53;5030666;28;20044;-73
2021/03/19 11:38:38;;;;;;;16.55;14.32;;;;;;;4.56;64.05;95281.69;5032500;28;20041;-71
2021/03/19 11:41:26;;;;;;;16.35;14.65;;;;;;;5.18;62.89;95272.69;5013178;28;20047;-74
2021/03/19 11:43:51;;;;;;;17.02;15.13;;;;;;;6.37;60.55;95274.66;5013835;28;20038;-76
2021/03/19 11:46:17;;;;;;;15.18;13.55;;;;;;;4.63;60.27;95273.50;5015667;28;20498;-74
2021/03/19 11:48:44;;;;;;;15.35;13.63;;;;;;;4.41;61.66;95279.03;5031653;28;20537;-74
2021/03/19 11:51:22;;;;;;;15.18;13.68;;;;;;;5.20;61.05;95262.66;5014274;28;20034;-72
2021/03/19 11:53:47;;;;;;;15.60;13.90;;;;;;;5.80;61.70;95261.97;5031728;28;20033;-78
2021/03/19 11:56:13;;;;;;;17.13;15.15;;;;;;;6.55;60.10;95262.63;5031328;28;20049;-72
2021/03/19 11:58:39;;;;;;;16.00;14.30;;;;;;;7.04;57.22;95241.38;5031219;28;20111;-73
2021/03/19 12:01:10;;;;;;;14.45;12.95;;;;;;;6.64;55.17;95263.63;5033019;28;20032;-73
2021/03/19 12:03:53;;;;;;;14.18;12.73;;;;;;;5.98;57.10;95254.25;5030781;28;20042;-72